Terminal Aerodrome Forecast
Issued by NWS

Home | Current Version | Previous Version | Graphics & Text | Print | Product List | Glossary On
Versions: 1 2 3 4 5 6 7 8 9 10 11 12 13 14 15 16
000
FTUS43 KABR 110210 AAA
TAFPIR
TAF AMD
KPIR 110210Z 1102/1124 28012KT P6SM SCT200
     FM110400 29015G22KT P6SM SCT250
     FM110900 31025G35KT P6SM SCT250
     FM111500 32025G35KT P6SM OVC025
     FM112300 33015G25KT P6SM OVC025=

USA.gov is the U.S. government's official web portal to all federal, state and local government web resources and services.